createdAt,value
2023-07-18T00:00:42.401Z,95021.00
2023-07-18T00:01:42.385Z,95021.00
2023-07-18T00:02:42.448Z,95023.00
2023-07-18T00:03:42.446Z,95021.00
2023-07-18T00:04:42.329Z,95021.00
2023-07-18T00:05:42.748Z,95021.00
2023-07-18T00:06:42.318Z,95021.00
2023-07-18T00:07:42.337Z,95024.00
2023-07-18T00:08:42.304Z,95024.00
2023-07-18T00:09:42.319Z,95023.00
2023-07-18T00:10:42.306Z,95023.00
2023-07-18T00:11:42.281Z,95021.00
2023-07-18T00:12:42.274Z,95017.00
2023-07-18T00:13:42.299Z,95019.00
2023-07-18T00:14:42.296Z,95017.00
2023-07-18T00:15:42.285Z,95017.00
2023-07-18T00:16:42.290Z,95015.00
2023-07-18T00:17:42.341Z,95015.00
2023-07-18T00:18:42.343Z,95017.00
2023-07-18T00:19:42.362Z,95021.00
2023-07-18T00:20:42.367Z,95021.00
2023-07-18T00:21:42.398Z,95021.00
2023-07-18T00:22:42.446Z,95021.00
2023-07-18T00:23:42.446Z,95021.00
2023-07-18T00:24:42.445Z,95017.00
2023-07-18T00:25:42.531Z,95021.00
2023-07-18T00:26:42.496Z,95019.00
2023-07-18T00:27:42.503Z,95021.00
2023-07-18T00:28:42.519Z,95017.00
2023-07-18T00:29:42.557Z,95017.00
2023-07-18T00:30:42.568Z,95017.00
2023-07-18T00:31:42.626Z,95019.00
2023-07-18T00:32:42.699Z,95019.00
2023-07-18T00:33:42.667Z,95017.00
2023-07-18T00:34:42.637Z,95019.00
2023-07-18T00:35:42.628Z,95021.00
2023-07-18T00:36:42.664Z,95021.00
2023-07-18T00:37:42.668Z,95023.00
2023-07-18T00:38:42.705Z,95023.00
2023-07-18T00:39:42.727Z,95019.00
2023-07-18T00:40:42.741Z,95021.00
2023-07-18T00:41:42.767Z,95023.00
2023-07-18T00:42:42.785Z,95019.00
2023-07-18T00:43:42.770Z,95019.00
2023-07-18T00:44:42.813Z,95019.00
2023-07-18T00:45:42.847Z,95019.00
2023-07-18T00:46:42.922Z,95019.00
2023-07-18T00:47:42.944Z,95017.00
2023-07-18T00:48:42.892Z,95019.00
2023-07-18T00:49:42.914Z,95015.00
2023-07-18T00:50:42.977Z,95019.00
2023-07-18T00:51:42.953Z,95015.00
2023-07-18T00:52:42.985Z,95015.00
2023-07-18T00:53:43.161Z,95015.00
2023-07-18T00:54:43.084Z,95015.00
2023-07-18T00:55:43.047Z,95017.00
2023-07-18T00:56:43.089Z,95017.00
2023-07-18T00:57:43.093Z,95017.00
2023-07-18T00:58:43.099Z,95019.00
2023-07-18T00:59:43.125Z,95017.00
2023-07-18T01:00:43.119Z,95017.00
2023-07-18T01:01:43.180Z,95019.00
2023-07-18T01:02:43.271Z,95017.00
2023-07-18T01:03:43.233Z,95017.00
2023-07-18T01:04:43.201Z,95017.00
2023-07-18T01:05:43.238Z,95015.00
2023-07-18T01:06:43.258Z,95013.00
2023-07-18T01:07:43.255Z,95011.00
2023-07-18T01:08:43.265Z,95011.00
2023-07-18T01:09:43.286Z,95011.00
2023-07-18T01:10:43.304Z,95009.00
2023-07-18T01:11:43.339Z,95011.00
2023-07-18T01:12:43.351Z,95009.00
2023-07-18T01:13:43.373Z,95005.00
2023-07-18T01:14:43.384Z,95003.00
2023-07-18T01:15:43.440Z,95003.00
2023-07-18T01:16:43.422Z,95003.00
2023-07-18T01:17:43.459Z,95003.00
2023-07-18T01:18:43.473Z,95005.00
2023-07-18T01:19:43.478Z,95003.00
2023-07-18T01:20:43.506Z,95001.00
2023-07-18T01:21:43.518Z,95001.00
2023-07-18T01:22:43.584Z,95001.00
2023-07-18T01:23:43.556Z,95001.00
2023-07-18T01:24:43.583Z,95001.00
2023-07-18T01:25:43.625Z,95001.00
2023-07-18T01:26:43.630Z,95003.00
2023-07-18T01:27:43.644Z,95001.00
2023-07-18T01:28:43.651Z,95001.00
2023-07-18T01:29:43.719Z,95001.00
2023-07-18T01:30:43.702Z,95001.00
2023-07-18T01:31:43.815Z,94999.00
2023-07-18T01:32:43.787Z,94997.00
2023-07-18T01:33:43.791Z,94995.00
2023-07-18T01:34:43.827Z,94995.00
2023-07-18T01:35:43.844Z,94995.00
2023-07-18T01:36:43.849Z,94995.00
2023-07-18T01:37:43.845Z,94993.00
2023-07-18T01:38:43.903Z,94993.00
2023-07-18T01:39:43.903Z,94995.00
2023-07-18T01:40:43.934Z,94997.00
2023-07-18T01:41:43.941Z,94993.00
2023-07-18T01:42:43.982Z,94995.00
2023-07-18T01:43:43.989Z,94997.00
2023-07-18T01:44:44.056Z,94995.00
2023-07-18T01:45:44.038Z,94997.00
2023-07-18T01:46:44.107Z,94999.00
2023-07-18T01:47:44.131Z,94999.00
2023-07-18T01:48:44.112Z,94997.00
2023-07-18T01:49:44.149Z,94997.00
2023-07-18T01:50:44.181Z,94999.00
2023-07-18T01:51:44.175Z,94999.00
2023-07-18T01:52:44.185Z,94999.00
2023-07-18T01:53:44.227Z,94995.00
2023-07-18T01:54:44.348Z,94999.00
2023-07-18T01:55:44.243Z,94997.00
2023-07-18T01:56:44.276Z,94997.00
2023-07-18T01:57:44.311Z,94999.00
2023-07-18T01:58:44.325Z,94999.00
2023-07-18T01:59:44.366Z,94999.00
2023-07-18T02:00:44.417Z,94999.00
2023-07-18T02:01:44.391Z,94999.00
2023-07-18T02:02:44.527Z,94999.00
2023-07-18T02:03:44.453Z,94997.00
2023-07-18T02:04:44.516Z,94999.00
2023-07-18T02:05:44.515Z,94999.00
2023-07-18T02:06:44.552Z,94999.00
2023-07-18T02:07:44.602Z,94997.00
2023-07-18T02:08:44.607Z,94997.00
2023-07-18T02:09:44.620Z,94997.00
2023-07-18T02:10:44.633Z,94995.00
2023-07-18T02:11:44.663Z,94999.00
2023-07-18T02:12:44.716Z,94999.00
2023-07-18T02:13:44.758Z,94999.00
2023-07-18T02:14:44.766Z,94999.00
2023-07-18T02:15:44.776Z,95001.00
2023-07-18T02:16:44.857Z,95001.00
2023-07-18T02:17:45.047Z,94999.00
2023-07-18T02:18:44.885Z,94999.00
2023-07-18T02:19:44.921Z,94999.00
2023-07-18T02:20:44.984Z,95001.00
2023-07-18T02:21:45.012Z,95001.00
2023-07-18T02:22:45.100Z,95003.00
2023-07-18T02:23:47.160Z,94999.00
2023-07-18T02:24:45.049Z,95001.00
2023-07-18T02:25:45.029Z,95003.00
2023-07-18T02:26:45.011Z,95003.00
2023-07-18T02:27:45.006Z,95003.00
2023-07-18T02:28:45.035Z,95005.00
2023-07-18T02:29:45.002Z,95007.00
2023-07-18T02:30:45.040Z,95007.00
2023-07-18T02:31:44.975Z,95011.00
2023-07-18T02:32:45.091Z,95013.00
2023-07-18T02:33:44.976Z,95007.00
2023-07-18T02:34:44.955Z,95007.00
2023-07-18T02:35:44.946Z,95009.00
2023-07-18T02:36:44.932Z,95013.00
2023-07-18T02:37:44.944Z,95013.00
2023-07-18T02:38:44.935Z,95015.00
2023-07-18T02:39:44.913Z,95017.00
2023-07-18T02:40:44.945Z,95017.00
2023-07-18T02:41:44.909Z,95017.00
2023-07-18T02:42:44.894Z,95017.00
2023-07-18T02:43:44.893Z,95017.00
2023-07-18T02:44:44.918Z,95019.00
2023-07-18T02:45:44.880Z,95019.00
2023-07-18T02:46:44.922Z,95015.00
2023-07-18T02:47:44.938Z,95017.00
2023-07-18T02:48:44.853Z,95019.00
2023-07-18T02:49:44.855Z,95021.00
2023-07-18T02:50:44.860Z,95023.00
2023-07-18T02:51:44.861Z,95024.00
2023-07-18T02:52:44.819Z,95024.00
2023-07-18T02:53:44.824Z,95026.00
2023-07-18T02:54:44.817Z,95026.00
2023-07-18T02:55:44.835Z,95026.00
2023-07-18T02:56:44.820Z,95026.00
2023-07-18T02:57:44.791Z,95030.00
2023-07-18T02:58:44.790Z,95030.00
2023-07-18T02:59:44.777Z,95032.00
2023-07-18T03:00:44.780Z,95030.00
2023-07-18T03:01:44.821Z,95034.00
2023-07-18T03:02:44.836Z,95032.00
2023-07-18T03:03:44.772Z,95030.00
2023-07-18T03:04:44.756Z,95030.00
2023-07-18T03:05:44.748Z,95032.00
2023-07-18T03:06:44.720Z,95034.00
2023-07-18T03:07:44.730Z,95034.00
2023-07-18T03:08:44.720Z,95034.00
2023-07-18T03:09:44.741Z,95032.00
2023-07-18T03:10:44.738Z,95032.00
2023-07-18T03:11:44.705Z,95032.00
2023-07-18T03:12:44.712Z,95034.00
2023-07-18T03:13:44.758Z,95034.00
2023-07-18T03:14:44.697Z,95036.00
2023-07-18T03:15:44.668Z,95036.00
2023-07-18T03:16:44.701Z,95036.00
2023-07-18T03:17:44.723Z,95038.00
2023-07-18T03:18:44.680Z,95038.00
2023-07-18T03:19:44.665Z,95038.00
2023-07-18T03:20:44.671Z,95038.00
2023-07-18T03:21:44.791Z,95038.00
2023-07-18T03:22:44.802Z,95038.00
2023-07-18T03:23:44.796Z,95036.00
2023-07-18T03:24:44.842Z,95038.00
2023-07-18T03:25:44.890Z,95040.00
2023-07-18T03:26:44.930Z,95038.00
2023-07-18T03:27:44.957Z,95034.00
2023-07-18T03:28:44.989Z,95038.00
2023-07-18T03:29:45.140Z,95034.00
2023-07-18T03:30:45.083Z,95036.00
2023-07-18T03:31:45.144Z,95036.00
2023-07-18T03:32:45.185Z,95036.00
2023-07-18T03:33:45.235Z,95038.00
2023-07-18T03:34:45.253Z,95038.00
2023-07-18T03:35:45.297Z,95034.00
2023-07-18T03:36:45.318Z,95036.00
2023-07-18T03:37:45.344Z,95036.00
2023-07-18T03:38:45.396Z,95034.00
2023-07-18T03:39:45.432Z,95034.00
2023-07-18T03:40:45.479Z,95034.00
2023-07-18T03:41:45.537Z,95032.00
2023-07-18T03:42:45.548Z,95032.00
2023-07-18T03:43:45.613Z,95032.00
2023-07-18T03:44:45.651Z,95032.00
2023-07-18T03:45:45.708Z,95032.00
2023-07-18T03:46:45.775Z,95032.00
2023-07-18T03:47:45.805Z,95032.00
2023-07-18T03:48:45.841Z,95032.00
2023-07-18T03:49:45.860Z,95032.00
2023-07-18T03:50:45.894Z,95032.00
2023-07-18T03:51:45.917Z,95032.00
2023-07-18T03:52:46.021Z,95032.00
2023-07-18T03:53:46.009Z,95032.00
2023-07-18T03:54:46.054Z,95028.00
2023-07-18T03:55:46.099Z,95032.00
2023-07-18T03:56:46.143Z,95032.00
2023-07-18T03:57:46.179Z,95034.00
2023-07-18T03:58:46.218Z,95034.00
2023-07-18T03:59:46.262Z,95032.00
2023-07-18T04:00:46.296Z,95034.00
2023-07-18T04:01:46.341Z,95030.00
2023-07-18T04:02:47.217Z,95032.00
2023-07-18T04:03:46.470Z,95032.00
2023-07-18T04:04:46.454Z,95034.00
2023-07-18T04:05:46.505Z,95034.00
2023-07-18T04:06:46.535Z,95032.00
2023-07-18T04:07:46.610Z,95036.00
2023-07-18T04:08:46.649Z,95036.00
2023-07-18T04:09:46.687Z,95036.00
2023-07-18T04:10:46.749Z,95036.00
2023-07-18T04:11:46.812Z,95038.00
2023-07-18T04:12:46.825Z,95034.00
2023-07-18T04:13:46.906Z,95036.00
2023-07-18T04:14:46.926Z,95038.00
2023-07-18T04:15:47.002Z,95038.00
2023-07-18T04:16:47.033Z,95038.00
2023-07-18T04:17:47.064Z,95038.00
2023-07-18T04:18:47.077Z,95040.00
2023-07-18T04:19:47.131Z,95036.00
2023-07-18T04:20:47.177Z,95036.00
2023-07-18T04:21:47.262Z,95036.00
2023-07-18T04:22:47.330Z,95036.00
2023-07-18T04:23:47.319Z,95034.00
2023-07-18T04:24:47.373Z,95036.00
2023-07-18T04:25:47.426Z,95040.00
2023-07-18T04:26:47.455Z,95040.00
2023-07-18T04:27:47.531Z,95040.00
2023-07-18T04:28:47.558Z,95038.00
2023-07-18T04:29:47.606Z,95038.00
2023-07-18T04:30:47.649Z,95038.00
2023-07-18T04:31:47.704Z,95036.00
2023-07-18T04:32:47.755Z,95040.00
2023-07-18T04:33:47.778Z,95036.00
2023-07-18T04:34:47.851Z,95034.00
2023-07-18T04:35:47.899Z,95038.00
2023-07-18T04:36:47.930Z,95036.00
2023-07-18T04:37:47.980Z,95036.00
2023-07-18T04:38:47.990Z,95032.00
2023-07-18T04:39:48.023Z,95034.00
2023-07-18T04:40:48.090Z,95036.00
2023-07-18T04:41:55.136Z,95034.00
2023-07-18T04:42:49.112Z,95038.00
2023-07-18T04:43:48.104Z,95038.00
2023-07-18T04:44:48.101Z,95038.00
2023-07-18T04:45:48.174Z,95038.00
2023-07-18T04:46:48.125Z,95038.00
2023-07-18T04:47:48.087Z,95040.00
2023-07-18T04:48:48.068Z,95038.00
2023-07-18T04:49:48.051Z,95038.00
2023-07-18T04:50:48.063Z,95038.00
2023-07-18T04:51:48.095Z,95042.00
2023-07-18T04:52:48.112Z,95042.00
2023-07-18T04:53:48.150Z,95040.00
2023-07-18T04:54:48.194Z,95042.00
2023-07-18T04:55:48.250Z,95040.00
2023-07-18T04:56:48.304Z,95040.00
2023-07-18T04:57:48.305Z,95038.00
2023-07-18T04:58:48.561Z,95044.00
2023-07-18T04:59:48.529Z,95046.00
2023-07-18T05:00:48.574Z,95048.00
2023-07-18T05:01:48.506Z,95052.00
2023-07-18T05:02:49.493Z,95050.00
2023-07-18T05:03:57.451Z,95052.00
2023-07-18T05:04:49.529Z,95052.00
2023-07-18T05:05:48.543Z,95052.00
2023-07-18T05:06:48.551Z,95048.00
2023-07-18T05:07:48.562Z,95048.00
2023-07-18T05:08:48.514Z,95052.00
2023-07-18T05:09:49.432Z,95048.00
2023-07-18T05:10:48.575Z,95052.00
2023-07-18T05:11:48.566Z,95048.00
2023-07-18T05:12:48.494Z,95050.00
2023-07-18T05:13:49.411Z,95046.00
2023-07-18T05:14:48.546Z,95046.00
2023-07-18T05:15:48.514Z,95044.00
2023-07-18T05:16:48.557Z,95042.00
2023-07-18T05:17:48.583Z,95040.00
2023-07-18T05:18:48.536Z,95042.00
2023-07-18T05:19:48.510Z,95042.00
2023-07-18T05:20:48.487Z,95040.00
2023-07-18T05:21:48.580Z,95044.00
2023-07-18T05:22:48.582Z,95044.00
2023-07-18T05:23:48.423Z,95042.00
2023-07-18T05:24:48.531Z,95042.00
2023-07-18T05:25:48.560Z,95040.00
2023-07-18T05:26:48.513Z,95040.00
2023-07-18T05:27:48.496Z,95040.00
2023-07-18T05:28:48.445Z,95040.00
2023-07-18T05:29:48.514Z,95042.00
2023-07-18T05:30:48.542Z,95040.00
2023-07-18T05:31:48.578Z,95038.00
2023-07-18T05:32:48.621Z,95040.00
2023-07-18T05:33:48.510Z,95038.00
2023-07-18T05:34:48.566Z,95040.00
2023-07-18T05:35:48.586Z,95036.00
2023-07-18T05:36:48.500Z,95032.00
2023-07-18T05:37:48.530Z,95036.00
2023-07-18T05:38:48.496Z,95036.00
2023-07-18T05:39:48.612Z,95038.00
2023-07-18T05:40:49.427Z,95036.00
2023-07-18T05:41:49.416Z,95036.00
2023-07-18T05:42:49.438Z,95038.00
2023-07-18T05:43:48.586Z,95036.00
2023-07-18T05:44:48.541Z,95034.00
2023-07-18T05:45:48.945Z,95036.00
2023-07-18T05:46:48.599Z,95034.00
2023-07-18T05:47:48.645Z,95034.00
2023-07-18T05:48:48.615Z,95032.00
2023-07-18T05:49:48.648Z,95032.00
2023-07-18T05:50:48.686Z,95030.00
2023-07-18T05:51:48.681Z,95030.00
2023-07-18T05:52:48.844Z,95028.00
2023-07-18T05:53:48.944Z,95026.00
2023-07-18T05:54:49.520Z,95032.00
2023-07-18T05:55:48.911Z,95034.00
2023-07-18T05:56:49.443Z,95036.00
2023-07-18T05:57:48.951Z,95032.00
2023-07-18T05:58:48.984Z,95036.00
2023-07-18T05:59:49.015Z,95036.00
2023-07-18T06:00:49.133Z,95034.00
2023-07-18T06:01:49.123Z,95036.00
2023-07-18T06:02:49.131Z,95036.00
2023-07-18T06:03:49.174Z,95036.00
2023-07-18T06:04:49.199Z,95032.00
2023-07-18T06:05:49.261Z,95032.00
2023-07-18T06:06:49.313Z,95034.00
2023-07-18T06:07:49.347Z,95028.00
2023-07-18T06:08:49.395Z,95028.00
2023-07-18T06:09:49.434Z,95026.00
2023-07-18T06:10:49.492Z,95028.00
2023-07-18T06:11:49.574Z,95028.00
2023-07-18T06:12:49.641Z,95028.00
2023-07-18T06:13:49.614Z,95024.00
2023-07-18T06:14:49.673Z,95024.00
2023-07-18T06:15:49.741Z,95023.00
2023-07-18T06:16:49.787Z,95024.00
2023-07-18T06:17:49.847Z,95023.00
2023-07-18T06:18:49.901Z,95024.00
2023-07-18T06:19:49.942Z,95023.00
2023-07-18T06:20:50.061Z,95021.00
2023-07-18T06:21:50.076Z,95021.00
2023-07-18T06:22:50.176Z,95024.00
2023-07-18T06:23:50.205Z,95019.00
2023-07-18T06:24:50.266Z,95021.00
2023-07-18T06:25:50.299Z,95019.00
2023-07-18T06:26:50.676Z,95017.00
2023-07-18T06:27:50.429Z,95017.00
2023-07-18T06:28:52.104Z,95019.00
2023-07-18T06:29:50.488Z,95019.00
2023-07-18T06:30:50.502Z,95015.00
2023-07-18T06:31:50.552Z,95013.00
2023-07-18T06:32:50.466Z,95011.00
2023-07-18T06:33:50.443Z,95009.00
2023-07-18T06:34:50.439Z,95011.00
2023-07-18T06:35:50.437Z,95009.00
2023-07-18T06:36:50.450Z,95011.00
2023-07-18T06:37:50.449Z,95009.00
2023-07-18T06:38:50.426Z,95011.00
2023-07-18T06:39:50.433Z,95013.00
2023-07-18T06:40:50.418Z,95015.00
2023-07-18T06:41:50.383Z,95013.00
2023-07-18T06:42:50.406Z,95015.00
2023-07-18T06:43:50.394Z,95017.00
2023-07-18T06:44:50.393Z,95013.00
2023-07-18T06:45:50.360Z,95011.00
2023-07-18T06:46:50.426Z,95011.00
2023-07-18T06:47:50.400Z,95013.00
2023-07-18T06:48:50.361Z,95009.00
2023-07-18T06:49:50.327Z,95005.00
2023-07-18T06:50:50.350Z,95005.00
2023-07-18T06:51:50.320Z,94997.00
2023-07-18T06:52:50.330Z,94997.00
2023-07-18T06:53:50.365Z,94993.00
2023-07-18T06:54:50.302Z,94995.00
2023-07-18T06:55:50.306Z,94995.00
2023-07-18T06:56:50.323Z,94995.00
2023-07-18T06:57:50.296Z,94999.00
2023-07-18T06:58:50.303Z,94997.00
2023-07-18T06:59:50.277Z,94995.00
2023-07-18T07:00:50.348Z,94989.00
2023-07-18T07:01:50.262Z,94991.00
2023-07-18T07:02:50.354Z,94989.00
2023-07-18T07:03:50.360Z,94983.00
2023-07-18T07:04:50.252Z,94983.00
2023-07-18T07:05:50.233Z,94977.00
2023-07-18T07:06:50.227Z,94977.00
2023-07-18T07:07:50.259Z,94977.00
2023-07-18T07:08:50.275Z,94977.00
2023-07-18T07:09:50.223Z,94976.00
2023-07-18T07:10:50.205Z,94976.00
2023-07-18T07:11:50.183Z,94974.00
2023-07-18T07:12:50.175Z,94976.00
2023-07-18T07:13:50.200Z,94976.00
2023-07-18T07:14:50.181Z,94970.00
2023-07-18T07:15:50.181Z,94968.00
2023-07-18T07:16:50.248Z,94966.00
2023-07-18T07:17:50.201Z,94966.00
2023-07-18T07:18:50.165Z,94966.00
2023-07-18T07:19:50.178Z,94968.00
2023-07-18T07:20:50.145Z,94968.00
2023-07-18T07:21:50.112Z,94966.00
2023-07-18T07:22:50.193Z,94968.00
2023-07-18T07:23:50.242Z,94964.00
2023-07-18T07:24:50.268Z,94962.00
2023-07-18T07:25:50.355Z,94962.00
2023-07-18T07:26:50.391Z,94964.00
2023-07-18T07:27:50.440Z,94960.00
2023-07-18T07:28:50.472Z,94962.00
2023-07-18T07:29:50.522Z,94964.00
2023-07-18T07:30:50.575Z,94960.00
2023-07-18T07:31:50.662Z,94960.00
2023-07-18T07:32:50.809Z,94958.00
2023-07-18T07:33:50.905Z,94954.00
2023-07-18T07:34:51.012Z,94954.00
2023-07-18T07:35:51.172Z,94956.00
2023-07-18T07:36:51.297Z,94950.00
2023-07-18T07:37:51.438Z,94944.00
2023-07-18T07:38:51.543Z,94942.00
2023-07-18T07:39:51.718Z,94938.00
2023-07-18T07:40:51.816Z,94938.00
2023-07-18T07:41:51.932Z,94936.00
2023-07-18T07:42:52.009Z,94934.00
2023-07-18T07:43:52.241Z,94934.00
2023-07-18T07:44:52.310Z,94932.00
2023-07-18T07:45:52.417Z,94930.00
2023-07-18T07:46:52.605Z,94930.00
2023-07-18T07:47:52.640Z,94924.00
2023-07-18T07:48:52.740Z,94915.00
2023-07-18T07:49:52.846Z,94922.00
2023-07-18T07:50:52.954Z,94915.00
2023-07-18T07:51:53.037Z,94911.00
2023-07-18T07:52:53.115Z,94913.00
2023-07-18T07:53:53.250Z,94911.00
2023-07-18T07:54:53.275Z,94909.00
2023-07-18T07:55:53.304Z,94907.00
2023-07-18T07:56:53.342Z,94905.00
2023-07-18T07:57:53.378Z,94905.00
2023-07-18T07:59:09.275Z,94905.00
2023-07-18T07:59:54.416Z,94901.00
2023-07-18T08:00:53.413Z,94901.00
2023-07-18T08:01:54.007Z,94901.00
2023-07-18T08:02:53.443Z,94901.00
2023-07-18T08:03:53.389Z,94899.00
2023-07-18T08:04:53.469Z,94897.00
2023-07-18T08:05:53.378Z,94897.00
2023-07-18T08:06:53.361Z,94897.00
2023-07-18T08:07:53.384Z,94895.00
2023-07-18T08:08:53.354Z,94891.00
2023-07-18T08:09:53.368Z,94889.00
2023-07-18T08:10:53.369Z,94887.00
2023-07-18T08:11:53.408Z,94882.00
2023-07-18T08:12:53.431Z,94880.00
2023-07-18T08:13:53.487Z,94878.00
2023-07-18T08:14:53.514Z,94876.00
2023-07-18T08:15:53.618Z,94878.00
2023-07-18T08:16:53.612Z,94876.00
2023-07-18T08:17:53.662Z,94878.00
2023-07-18T08:18:53.724Z,94878.00
2023-07-18T08:19:53.716Z,94876.00
2023-07-18T08:20:53.757Z,94876.00
2023-07-18T08:21:53.779Z,94872.00
2023-07-18T08:22:53.813Z,94872.00
2023-07-18T08:23:53.888Z,94872.00
2023-07-18T08:24:53.904Z,94870.00
2023-07-18T08:25:53.906Z,94868.00
2023-07-18T08:26:53.930Z,94866.00
2023-07-18T08:27:53.970Z,94866.00
2023-07-18T08:28:54.021Z,94858.00
2023-07-18T08:29:54.048Z,94856.00
2023-07-18T08:30:54.069Z,94852.00
2023-07-18T08:31:54.141Z,94850.00
2023-07-18T08:32:54.230Z,94848.00
2023-07-18T08:33:54.145Z,94846.00
2023-07-18T08:34:54.193Z,94842.00
2023-07-18T08:35:54.224Z,94844.00
2023-07-18T08:36:54.231Z,94840.00
2023-07-18T08:37:54.249Z,94838.00
2023-07-18T08:38:54.282Z,94837.00
2023-07-18T08:39:54.289Z,94835.00
2023-07-18T08:40:54.307Z,94835.00
2023-07-18T08:41:54.324Z,94830.00
2023-07-18T08:42:54.359Z,94829.00
2023-07-18T08:43:54.373Z,94827.00
2023-07-18T08:44:54.407Z,94825.00
2023-07-18T08:45:54.444Z,94823.00
2023-07-18T08:46:54.420Z,94819.00
2023-07-18T08:47:54.475Z,94819.00
2023-07-18T08:48:54.445Z,94815.00
2023-07-18T08:49:54.470Z,94811.00
2023-07-18T08:50:54.493Z,94811.00
2023-07-18T08:51:54.489Z,94809.00
2023-07-18T08:52:54.536Z,94809.00
2023-07-18T08:53:54.548Z,94803.00
2023-07-18T08:54:54.572Z,94797.00
2023-07-18T08:55:54.633Z,94797.00
2023-07-18T08:56:54.584Z,94793.00
2023-07-18T08:57:54.559Z,94791.00
2023-07-18T08:58:54.572Z,94797.00
2023-07-18T08:59:54.591Z,94795.00
2023-07-18T09:00:54.607Z,94797.00
2023-07-18T09:01:54.656Z,94791.00
2023-07-18T09:02:54.694Z,94791.00
2023-07-18T09:03:54.658Z,94790.00
2023-07-18T09:04:54.613Z,94790.00
2023-07-18T09:05:54.606Z,94786.00
2023-07-18T09:06:54.632Z,94793.00
2023-07-18T09:07:54.620Z,94788.00
2023-07-18T09:08:54.634Z,94784.00
2023-07-18T09:09:54.624Z,94778.00
2023-07-18T09:10:54.623Z,94776.00
2023-07-18T09:11:54.641Z,94774.00
2023-07-18T09:12:54.633Z,94768.00
2023-07-18T09:13:54.666Z,94770.00
2023-07-18T09:14:54.638Z,94768.00
2023-07-18T09:15:54.651Z,94768.00
2023-07-18T09:16:54.674Z,94766.00
2023-07-18T09:17:54.709Z,94766.00
2023-07-18T09:18:54.645Z,94762.00
2023-07-18T09:19:54.633Z,94760.00
2023-07-18T09:20:54.808Z,94758.00
2023-07-18T09:21:54.667Z,94756.00
2023-07-18T09:22:54.648Z,94752.00
2023-07-18T09:23:54.645Z,94750.00
2023-07-18T09:24:54.675Z,94748.00
2023-07-18T09:25:54.674Z,94746.00
2023-07-18T09:26:54.696Z,94746.00
2023-07-18T09:27:54.745Z,94744.00
2023-07-18T09:28:54.728Z,94744.00
2023-07-18T09:29:54.741Z,94741.00
2023-07-18T09:30:54.742Z,94741.00
2023-07-18T09:31:54.748Z,94741.00
2023-07-18T09:32:54.770Z,94739.00
2023-07-18T09:33:54.885Z,94737.00
2023-07-18T09:34:54.815Z,94733.00
2023-07-18T09:35:54.823Z,94727.00
2023-07-18T09:36:54.857Z,94729.00
2023-07-18T09:37:54.846Z,94727.00
2023-07-18T09:38:54.905Z,94725.00
2023-07-18T09:39:54.931Z,94725.00
2023-07-18T09:40:54.988Z,94723.00
2023-07-18T09:41:55.018Z,94725.00
2023-07-18T09:42:55.934Z,94723.00
2023-07-18T09:44:09.591Z,94719.00
2023-07-18T09:44:56.268Z,94719.00
2023-07-18T09:45:55.089Z,94723.00
2023-07-18T09:46:55.038Z,94721.00
2023-07-18T09:47:55.075Z,94719.00
2023-07-18T09:48:55.052Z,94715.00
2023-07-18T09:49:55.032Z,94711.00
2023-07-18T09:50:55.011Z,94707.00
2023-07-18T09:51:55.009Z,94707.00
2023-07-18T09:52:55.025Z,94703.00
2023-07-18T09:53:55.124Z,94701.00
2023-07-18T09:54:55.103Z,94699.00
2023-07-18T09:55:55.134Z,94699.00
2023-07-18T09:56:55.187Z,94699.00
2023-07-18T09:57:55.214Z,94696.00
2023-07-18T09:58:55.321Z,94694.00
2023-07-18T09:59:55.356Z,94690.00
2023-07-18T10:00:55.451Z,94690.00
2023-07-18T10:01:55.569Z,94690.00
2023-07-18T10:02:55.659Z,94688.00
2023-07-18T10:03:55.724Z,94686.00
2023-07-18T10:04:55.624Z,94686.00
2023-07-18T10:05:55.699Z,94678.00
2023-07-18T10:06:55.754Z,94678.00
2023-07-18T10:07:55.821Z,94678.00
2023-07-18T10:08:55.880Z,94676.00
2023-07-18T10:09:55.914Z,94678.00
2023-07-18T10:10:56.001Z,94680.00
2023-07-18T10:11:56.010Z,94678.00
2023-07-18T10:12:56.059Z,94676.00
2023-07-18T10:13:56.117Z,94676.00
2023-07-18T10:14:56.160Z,94674.00
2023-07-18T10:15:56.234Z,94674.00
2023-07-18T10:16:56.342Z,94672.00
2023-07-18T10:17:56.412Z,94670.00
2023-07-18T10:18:56.346Z,94670.00
2023-07-18T10:19:56.436Z,94672.00
2023-07-18T10:20:56.468Z,94668.00
2023-07-18T10:21:56.641Z,94670.00
2023-07-18T10:22:56.623Z,94668.00
2023-07-18T10:23:56.627Z,94666.00
2023-07-18T10:24:56.761Z,94658.00
2023-07-18T10:25:56.720Z,94658.00
2023-07-18T10:26:56.785Z,94654.00
2023-07-18T10:27:56.799Z,94652.00
2023-07-18T10:28:56.865Z,94651.00
2023-07-18T10:29:56.913Z,94649.00
2023-07-18T10:30:57.014Z,94649.00
2023-07-18T10:31:57.062Z,94647.00
2023-07-18T10:32:57.146Z,94645.00
2023-07-18T10:33:57.119Z,94643.00
2023-07-18T10:34:57.185Z,94641.00
2023-07-18T10:35:57.258Z,94637.00
2023-07-18T10:36:57.342Z,94633.00
2023-07-18T10:37:57.321Z,94637.00
2023-07-18T10:38:57.381Z,94635.00
2023-07-18T10:39:57.438Z,94631.00
2023-07-18T10:40:57.480Z,94633.00
2023-07-18T10:41:57.566Z,94631.00
2023-07-18T10:42:57.567Z,94627.00
2023-07-18T10:43:57.592Z,94625.00
2023-07-18T10:44:57.648Z,94621.00
2023-07-18T10:45:57.703Z,94617.00
2023-07-18T10:46:57.897Z,94617.00
2023-07-18T10:47:57.797Z,94613.00
2023-07-18T10:48:57.831Z,94611.00
2023-07-18T10:49:57.896Z,94611.00
2023-07-18T10:50:57.960Z,94613.00
2023-07-18T10:51:58.046Z,94613.00
2023-07-18T10:52:58.041Z,94611.00
2023-07-18T10:53:58.114Z,94609.00
2023-07-18T10:54:58.175Z,94607.00
2023-07-18T10:55:58.239Z,94602.00
2023-07-18T10:56:58.348Z,94596.00
2023-07-18T10:57:58.319Z,94596.00
2023-07-18T10:58:58.410Z,94594.00
2023-07-18T10:59:58.459Z,94590.00
2023-07-18T11:00:58.537Z,94590.00
2023-07-18T11:01:58.566Z,94588.00
2023-07-18T11:02:58.615Z,94584.00
2023-07-18T11:03:58.632Z,94586.00
2023-07-18T11:04:58.710Z,94582.00
2023-07-18T11:05:58.780Z,94576.00
2023-07-18T11:06:58.789Z,94574.00
2023-07-18T11:07:58.841Z,94570.00
2023-07-18T11:08:58.884Z,94568.00
2023-07-18T11:09:58.931Z,94568.00
2023-07-18T11:10:58.965Z,94568.00
2023-07-18T11:11:59.081Z,94566.00
2023-07-18T11:12:59.102Z,94566.00
2023-07-18T11:13:59.137Z,94563.00
2023-07-18T11:15:00.821Z,94557.00
2023-07-18T11:15:59.288Z,94553.00
2023-07-18T11:16:59.500Z,94551.00
2023-07-18T11:17:59.431Z,94547.00
2023-07-18T11:18:59.424Z,94541.00
2023-07-18T11:19:59.477Z,94537.00
2023-07-18T11:21:01.769Z,94537.00
2023-07-18T11:21:59.526Z,94539.00
2023-07-18T11:22:59.557Z,94537.00
2023-07-18T11:23:59.521Z,94533.00
2023-07-18T11:24:59.515Z,94529.00
2023-07-18T11:25:59.483Z,94527.00
2023-07-18T11:26:59.500Z,94527.00
2023-07-18T11:27:59.480Z,94527.00
2023-07-18T11:28:59.471Z,94527.00
2023-07-18T11:29:59.453Z,94525.00
2023-07-18T11:30:59.573Z,94523.00
2023-07-18T11:31:59.486Z,94523.00
2023-07-18T11:32:59.517Z,94519.00
2023-07-18T11:33:59.454Z,94516.00
2023-07-18T11:34:59.453Z,94512.00
2023-07-18T11:35:59.452Z,94510.00
2023-07-18T11:36:59.459Z,94510.00
2023-07-18T11:37:59.429Z,94506.00
2023-07-18T11:38:59.425Z,94508.00
2023-07-18T11:39:59.393Z,94504.00
2023-07-18T11:40:59.385Z,94502.00
2023-07-18T11:41:59.378Z,94502.00
2023-07-18T11:42:59.434Z,94500.00
2023-07-18T11:43:59.385Z,94502.00
2023-07-18T11:44:59.368Z,94504.00